createdAt,value
2017-12-15T00:00:05.397Z,989.77
2017-12-15T00:01:04.978Z,989.78
2017-12-15T00:02:04.066Z,989.81
2017-12-15T00:03:04.093Z,989.77
2017-12-15T00:04:04.084Z,989.79
2017-12-15T00:05:04.046Z,989.80
2017-12-15T00:06:03.935Z,989.76
2017-12-15T00:07:04.109Z,989.79
2017-12-15T00:08:04.021Z,989.76
2017-12-15T00:09:03.975Z,989.77
2017-12-15T00:10:03.970Z,989.78
2017-12-15T00:11:04.003Z,989.80
2017-12-15T00:12:04.179Z,989.83
2017-12-15T00:13:04.302Z,989.84
2017-12-15T00:14:04.203Z,989.83
2017-12-15T00:15:04.284Z,989.81
2017-12-15T00:16:04.231Z,989.82
2017-12-15T00:17:04.093Z,989.83
2017-12-15T00:18:04.171Z,989.86
2017-12-15T00:19:04.232Z,989.86
2017-12-15T00:20:04.317Z,989.86
2017-12-15T00:21:04.157Z,989.86
2017-12-15T00:22:04.289Z,989.90
2017-12-15T00:23:04.216Z,989.86
2017-12-15T00:24:04.203Z,989.87
2017-12-15T00:25:04.200Z,989.87
2017-12-15T00:26:04.145Z,989.88
2017-12-15T00:27:27.663Z,989.82
2017-12-15T00:28:28.716Z,989.83
2017-12-15T00:29:29.005Z,989.84
2017-12-15T00:30:28.356Z,989.84
2017-12-15T00:31:52.284Z,989.84
2017-12-15T00:32:52.614Z,989.85
2017-12-15T00:33:52.744Z,989.83
2017-12-15T00:34:54.174Z,989.82
2017-12-15T00:35:53.624Z,989.83
2017-12-15T00:36:53.036Z,989.86
2017-12-15T00:37:53.112Z,989.84
2017-12-15T00:38:53.581Z,989.84
2017-12-15T00:39:53.131Z,989.85
2017-12-15T00:40:53.440Z,989.85
2017-12-15T00:41:52.851Z,989.86
2017-12-15T00:42:53.060Z,989.89
2017-12-15T00:43:53.415Z,989.88
2017-12-15T00:44:52.627Z,989.90
2017-12-15T00:45:52.620Z,989.85
2017-12-15T00:46:52.845Z,989.83
2017-12-15T00:47:53.143Z,989.85
2017-12-15T00:48:53.189Z,989.83
2017-12-15T00:49:52.569Z,989.80
2017-12-15T00:50:52.467Z,989.83
2017-12-15T00:51:52.606Z,989.83
2017-12-15T00:52:52.546Z,989.81
2017-12-15T00:53:52.580Z,989.85
2017-12-15T00:54:52.365Z,989.86
2017-12-15T00:55:52.343Z,989.79
2017-12-15T00:56:52.350Z,989.86
2017-12-15T00:57:52.233Z,989.84
2017-12-15T00:58:53.200Z,989.85
2017-12-15T01:00:17.149Z,989.80
2017-12-15T01:01:18.001Z,989.85
2017-12-15T01:02:18.063Z,989.85
2017-12-15T01:03:17.158Z,989.85
2017-12-15T01:04:17.114Z,989.83
2017-12-15T01:05:17.067Z,989.83
2017-12-15T01:07:05.487Z,989.82
2017-12-15T01:08:06.452Z,989.84
2017-12-15T01:09:06.341Z,989.84
2017-12-15T01:10:06.195Z,989.84
2017-12-15T01:11:06.162Z,989.88
2017-12-15T01:12:06.185Z,989.91
2017-12-15T01:13:06.292Z,989.91
2017-12-15T01:14:06.264Z,989.92
2017-12-15T01:15:06.226Z,989.94
2017-12-15T01:16:06.306Z,989.98
2017-12-15T01:17:06.305Z,989.97
2017-12-15T01:18:06.235Z,989.98
2017-12-15T01:19:06.164Z,989.98
2017-12-15T01:20:05.999Z,989.95
2017-12-15T01:21:05.897Z,989.97
2017-12-15T01:22:05.671Z,989.97
2017-12-15T01:23:21.144Z,989.96
2017-12-15T01:24:22.037Z,989.95
2017-12-15T01:25:21.974Z,989.97
2017-12-15T01:26:21.834Z,989.97
2017-12-15T01:27:21.784Z,989.98
2017-12-15T01:28:21.724Z,990.03
2017-12-15T01:29:21.622Z,990.00
2017-12-15T01:30:45.384Z,990.01
2017-12-15T01:31:45.470Z,990.00
2017-12-15T01:32:45.628Z,989.99
2017-12-15T01:33:45.642Z,990.03
2017-12-15T01:34:45.607Z,990.04
2017-12-15T01:35:45.508Z,990.04
2017-12-15T01:36:46.165Z,990.03
2017-12-15T01:37:46.192Z,990.06
2017-12-15T01:38:46.077Z,990.05
2017-12-15T01:39:46.072Z,990.05
2017-12-15T01:40:45.935Z,990.12
2017-12-15T01:41:45.968Z,990.08
2017-12-15T01:42:46.089Z,990.13
2017-12-15T01:43:46.074Z,990.12
2017-12-15T01:44:46.082Z,990.08
2017-12-15T01:45:47.388Z,990.11
2017-12-15T01:46:45.436Z,990.15
2017-12-15T01:47:45.447Z,990.18
2017-12-15T01:48:45.288Z,990.19
2017-12-15T01:49:45.409Z,990.19
2017-12-15T01:50:45.488Z,990.22
2017-12-15T01:51:45.319Z,990.15
2017-12-15T01:52:45.214Z,990.15
2017-12-15T01:53:45.228Z,990.17
2017-12-15T01:54:45.257Z,990.22
2017-12-15T01:55:46.148Z,990.26
2017-12-15T01:56:46.124Z,990.21
2017-12-15T01:57:45.317Z,990.23
2017-12-15T01:58:46.182Z,990.28
2017-12-15T01:59:46.138Z,990.25
2017-12-15T02:00:46.078Z,990.32
2017-12-15T02:01:45.956Z,990.32
2017-12-15T02:02:45.976Z,990.34
2017-12-15T02:03:45.932Z,990.35
2017-12-15T02:04:45.792Z,990.33
2017-12-15T02:05:45.652Z,990.36
2017-12-15T02:06:45.749Z,990.35
2017-12-15T02:07:45.811Z,990.28
2017-12-15T02:08:45.683Z,990.38
2017-12-15T02:09:45.710Z,990.42
2017-12-15T02:10:45.635Z,990.42
2017-12-15T02:11:45.518Z,990.38
2017-12-15T02:12:45.485Z,990.43
2017-12-15T02:13:45.377Z,990.42
2017-12-15T02:14:45.576Z,990.43
2017-12-15T02:15:45.480Z,990.45
2017-12-15T02:16:45.458Z,990.48
2017-12-15T02:18:11.134Z,990.45
2017-12-15T02:19:12.059Z,990.47
2017-12-15T02:20:12.063Z,990.49
2017-12-15T02:21:11.975Z,990.46
2017-12-15T02:22:11.898Z,990.44
2017-12-15T02:23:11.867Z,990.45
2017-12-15T02:24:11.775Z,990.41
2017-12-15T02:25:11.715Z,990.42
2017-12-15T02:26:11.795Z,990.46
2017-12-15T02:27:11.649Z,990.46
2017-12-15T02:28:11.592Z,990.43
2017-12-15T02:29:11.343Z,990.48
2017-12-15T02:30:11.488Z,990.45
2017-12-15T02:31:11.393Z,990.45
2017-12-15T02:32:11.508Z,990.48
2017-12-15T02:33:11.450Z,990.53
2017-12-15T02:34:10.726Z,990.50
2017-12-15T02:35:11.114Z,990.55
2017-12-15T02:36:12.018Z,990.53
2017-12-15T02:37:11.074Z,990.54
2017-12-15T02:38:12.105Z,990.52
2017-12-15T02:39:11.975Z,990.54
2017-12-15T02:40:34.325Z,990.53
2017-12-15T02:41:35.416Z,990.57
2017-12-15T02:42:34.473Z,990.59
2017-12-15T02:43:34.538Z,990.55
2017-12-15T02:44:35.582Z,990.51
2017-12-15T02:45:35.545Z,990.55
2017-12-15T02:46:35.410Z,990.54
2017-12-15T02:47:35.366Z,990.53
2017-12-15T02:48:34.615Z,990.53
2017-12-15T02:49:35.564Z,990.54
2017-12-15T02:50:35.468Z,990.52
2017-12-15T02:51:34.742Z,990.53
2017-12-15T02:52:35.767Z,990.51
2017-12-15T02:53:35.723Z,990.56
2017-12-15T02:54:34.911Z,990.54
2017-12-15T02:55:35.078Z,990.55
2017-12-15T02:56:34.381Z,990.59
2017-12-15T02:57:34.634Z,990.58
2017-12-15T02:58:35.580Z,990.56
2017-12-15T02:59:34.882Z,990.58
2017-12-15T03:00:34.998Z,990.60
2017-12-15T03:01:34.244Z,990.60
2017-12-15T03:02:35.128Z,990.58
2017-12-15T03:03:34.544Z,990.61
2017-12-15T03:04:35.373Z,990.60
2017-12-15T03:05:34.506Z,990.62
2017-12-15T03:06:34.913Z,990.64
2017-12-15T03:07:34.943Z,990.64
2017-12-15T03:08:34.278Z,990.61
2017-12-15T03:09:35.242Z,990.74
2017-12-15T03:10:35.288Z,990.72
2017-12-15T03:11:34.399Z,990.74
2017-12-15T03:12:35.273Z,990.77
2017-12-15T03:13:35.421Z,990.77
2017-12-15T03:14:35.492Z,990.77
2017-12-15T03:15:34.856Z,990.79
2017-12-15T03:16:35.765Z,990.81
2017-12-15T03:17:34.822Z,990.77
2017-12-15T03:18:35.869Z,990.84
2017-12-15T03:19:35.784Z,990.85
2017-12-15T03:20:35.695Z,990.85
2017-12-15T03:21:34.700Z,990.84
2017-12-15T03:22:34.992Z,990.85
2017-12-15T03:23:35.102Z,990.85
2017-12-15T03:24:35.102Z,990.86
2017-12-15T03:25:35.164Z,990.86
2017-12-15T03:26:35.190Z,990.90
2017-12-15T03:27:34.260Z,990.94
2017-12-15T03:28:35.329Z,990.94
2017-12-15T03:29:35.324Z,990.94
2017-12-15T03:30:35.210Z,990.94
2017-12-15T03:31:35.277Z,990.95
2017-12-15T03:32:35.292Z,990.97
2017-12-15T03:33:35.135Z,990.92
2017-12-15T03:34:35.112Z,990.98
2017-12-15T03:35:35.255Z,990.98
2017-12-15T03:36:35.140Z,991.00
2017-12-15T03:37:35.016Z,991.03
2017-12-15T03:38:35.916Z,991.00
2017-12-15T03:39:35.039Z,991.06
2017-12-15T03:40:35.037Z,991.06
2017-12-15T03:41:35.061Z,991.12
2017-12-15T03:42:34.998Z,991.15
2017-12-15T03:43:35.862Z,991.10
2017-12-15T03:44:35.922Z,991.13
2017-12-15T03:45:35.829Z,991.15
2017-12-15T03:46:35.691Z,991.17
2017-12-15T03:47:35.583Z,991.17
2017-12-15T03:48:35.600Z,991.01
2017-12-15T03:49:35.470Z,991.22
2017-12-15T03:50:35.491Z,991.15
2017-12-15T03:51:35.429Z,991.26
2017-12-15T03:52:35.286Z,991.25
2017-12-15T03:53:35.229Z,991.23
2017-12-15T03:54:35.137Z,991.27
2017-12-15T03:55:35.070Z,991.28
2017-12-15T03:56:35.027Z,991.26
2017-12-15T03:57:34.969Z,991.24
2017-12-15T03:58:35.002Z,991.25
2017-12-15T03:59:35.085Z,991.29
2017-12-15T04:00:34.988Z,991.24
2017-12-15T04:01:35.029Z,991.24
2017-12-15T04:02:34.913Z,991.27
2017-12-15T04:03:34.933Z,991.29
2017-12-15T04:04:35.807Z,991.33
2017-12-15T04:05:35.785Z,991.31
2017-12-15T04:06:35.770Z,991.27
2017-12-15T04:07:35.797Z,991.35
2017-12-15T04:08:35.941Z,991.33
2017-12-15T04:09:35.750Z,991.30
2017-12-15T04:10:35.741Z,991.28
2017-12-15T04:11:35.706Z,991.31
2017-12-15T04:12:35.714Z,991.38
2017-12-15T04:13:35.727Z,991.38
2017-12-15T04:14:35.725Z,991.39
2017-12-15T04:15:35.719Z,991.36
2017-12-15T04:16:35.573Z,991.41
2017-12-15T04:17:35.790Z,991.40
2017-12-15T04:18:36.390Z,991.40
2017-12-15T04:19:35.299Z,991.49
2017-12-15T04:20:35.571Z,991.54
2017-12-15T04:21:35.644Z,991.52
2017-12-15T04:22:35.776Z,991.52
2017-12-15T04:23:35.588Z,991.51
2017-12-15T04:24:35.483Z,991.48
2017-12-15T04:25:35.592Z,991.50
2017-12-15T04:27:01.196Z,991.51
2017-12-15T04:28:02.261Z,991.51
2017-12-15T04:29:02.055Z,991.55
2017-12-15T04:30:01.989Z,991.61
2017-12-15T04:31:01.734Z,991.59
2017-12-15T04:32:01.616Z,991.57
2017-12-15T04:33:01.691Z,991.58
2017-12-15T04:34:01.666Z,991.58
2017-12-15T04:35:01.647Z,991.65
2017-12-15T04:36:01.613Z,991.60
2017-12-15T04:37:01.543Z,991.65
2017-12-15T04:38:01.386Z,991.68
2017-12-15T04:39:01.343Z,991.64
2017-12-15T04:40:02.240Z,991.62
2017-12-15T04:41:02.125Z,991.72
2017-12-15T04:42:02.090Z,991.73
2017-12-15T04:43:01.980Z,991.75
2017-12-15T04:44:01.897Z,991.79
2017-12-15T04:45:01.968Z,991.77
2017-12-15T04:46:01.956Z,991.85
2017-12-15T04:47:49.259Z,991.88
2017-12-15T04:48:50.341Z,991.87
2017-12-15T04:49:50.192Z,991.90
2017-12-15T04:50:50.141Z,991.88
2017-12-15T04:51:50.123Z,991.95
2017-12-15T04:52:50.201Z,991.98
2017-12-15T04:53:49.293Z,992.01
2017-12-15T04:54:50.250Z,991.97
2017-12-15T04:55:50.167Z,992.04
2017-12-15T04:56:50.123Z,992.03
2017-12-15T04:57:50.143Z,992.06
2017-12-15T04:58:50.151Z,992.08
2017-12-15T04:59:50.192Z,992.05
2017-12-15T05:00:50.094Z,992.08
2017-12-15T05:01:50.070Z,992.07
2017-12-15T05:02:49.930Z,992.11
2017-12-15T05:03:49.872Z,992.12
2017-12-15T05:04:49.736Z,992.14
2017-12-15T05:05:49.683Z,992.13
2017-12-15T05:07:36.999Z,992.12
2017-12-15T05:08:37.796Z,992.13
2017-12-15T05:09:37.756Z,992.15
2017-12-15T05:10:37.849Z,992.16
2017-12-15T05:11:37.744Z,992.16
2017-12-15T05:12:37.700Z,992.14
2017-12-15T05:13:37.667Z,992.13
2017-12-15T05:14:37.622Z,992.22
2017-12-15T05:15:37.600Z,992.23
2017-12-15T05:16:37.554Z,992.18
2017-12-15T05:17:37.407Z,992.21
2017-12-15T05:18:37.311Z,992.24
2017-12-15T05:19:37.280Z,992.27
2017-12-15T05:20:37.351Z,992.23
2017-12-15T05:21:37.282Z,992.26
2017-12-15T05:22:37.109Z,992.25
2017-12-15T05:23:37.097Z,992.21
2017-12-15T05:24:37.152Z,992.25
2017-12-15T05:25:37.957Z,992.26
2017-12-15T05:26:37.941Z,992.27
2017-12-15T05:28:00.602Z,992.26
2017-12-15T05:29:00.617Z,992.31
2017-12-15T05:30:01.499Z,992.33
2017-12-15T05:31:01.347Z,992.38
2017-12-15T05:32:01.292Z,992.33
2017-12-15T05:33:01.248Z,992.38
2017-12-15T05:34:01.035Z,992.39
2017-12-15T05:35:00.943Z,992.39
2017-12-15T05:36:00.987Z,992.41
2017-12-15T05:37:00.870Z,992.43
2017-12-15T05:38:00.945Z,992.38
2017-12-15T05:39:00.916Z,992.42
2017-12-15T05:40:00.898Z,992.44
2017-12-15T05:41:01.504Z,992.43
2017-12-15T05:42:01.664Z,992.50
2017-12-15T05:43:02.247Z,992.45
2017-12-15T05:44:01.291Z,992.46
2017-12-15T05:45:01.547Z,992.49
2017-12-15T05:46:00.624Z,992.53
2017-12-15T05:47:00.852Z,992.54
2017-12-15T05:48:01.062Z,992.49
2017-12-15T05:49:01.171Z,992.55
2017-12-15T05:50:01.196Z,992.54
2017-12-15T05:51:01.190Z,992.53
2017-12-15T05:52:01.249Z,992.58
2017-12-15T05:53:01.234Z,992.60
2017-12-15T05:54:01.305Z,992.61
2017-12-15T05:55:01.440Z,992.65
2017-12-15T05:56:01.368Z,992.65
2017-12-15T05:57:01.576Z,992.68
2017-12-15T05:58:01.558Z,992.66
2017-12-15T05:59:00.762Z,992.69
2017-12-15T06:00:00.858Z,992.71
2017-12-15T06:01:00.994Z,992.70
2017-12-15T06:02:01.113Z,992.66
2017-12-15T06:03:01.248Z,992.73
2017-12-15T06:04:01.377Z,992.78
2017-12-15T06:05:01.630Z,992.71
2017-12-15T06:06:01.766Z,992.75
2017-12-15T06:07:00.940Z,992.83
2017-12-15T06:08:00.883Z,992.84
2017-12-15T06:09:01.131Z,992.84
2017-12-15T06:10:01.480Z,992.86
2017-12-15T06:11:01.916Z,992.88
2017-12-15T06:12:01.085Z,992.87
2017-12-15T06:13:01.323Z,992.88
2017-12-15T06:14:01.560Z,992.91
2017-12-15T06:15:01.650Z,992.93
2017-12-15T06:16:00.851Z,992.94
2017-12-15T06:17:01.025Z,992.97
2017-12-15T06:18:01.310Z,993.00
2017-12-15T06:19:01.820Z,992.98
2017-12-15T06:20:00.962Z,992.98
2017-12-15T06:21:01.332Z,992.99
2017-12-15T06:22:01.353Z,992.98
2017-12-15T06:23:01.487Z,993.00
2017-12-15T06:24:01.608Z,992.94
2017-12-15T06:25:01.702Z,992.98
2017-12-15T06:26:00.970Z,992.99
2017-12-15T06:27:00.920Z,993.01
2017-12-15T06:28:24.888Z,993.02
2017-12-15T06:29:24.947Z,993.01
2017-12-15T06:30:24.954Z,993.04
2017-12-15T06:31:25.183Z,993.07
2017-12-15T06:32:25.240Z,993.03
2017-12-15T06:33:49.600Z,993.03
2017-12-15T06:34:49.774Z,993.07
2017-12-15T06:35:49.912Z,993.11
2017-12-15T06:36:50.211Z,993.10
2017-12-15T06:37:51.264Z,993.11
2017-12-15T06:38:50.595Z,993.11
2017-12-15T06:39:50.779Z,993.12
2017-12-15T06:40:49.717Z,993.16
2017-12-15T06:41:50.058Z,993.15
2017-12-15T06:42:50.160Z,993.19
2017-12-15T06:43:50.341Z,993.16
2017-12-15T06:44:50.558Z,993.15
2017-12-15T06:45:49.791Z,993.17
2017-12-15T06:46:49.930Z,993.19
2017-12-15T06:47:50.135Z,993.15
2017-12-15T06:48:50.168Z,993.16
2017-12-15T06:49:50.130Z,993.20
2017-12-15T06:50:50.358Z,993.23
2017-12-15T06:51:50.186Z,993.26
2017-12-15T06:52:50.327Z,993.25
2017-12-15T06:53:50.456Z,993.27
2017-12-15T06:54:49.491Z,993.27
2017-12-15T06:55:50.391Z,993.33
2017-12-15T06:56:50.423Z,993.30
2017-12-15T06:57:50.223Z,993.33
2017-12-15T06:58:50.316Z,993.34
2017-12-15T07:00:14.125Z,993.38
2017-12-15T07:01:14.964Z,993.41
2017-12-15T07:02:15.176Z,993.42
2017-12-15T07:03:14.249Z,993.40
2017-12-15T07:05:40.132Z,993.47
2017-12-15T07:06:40.229Z,993.51
2017-12-15T07:07:40.153Z,993.53
2017-12-15T07:08:40.086Z,993.50
2017-12-15T07:10:03.763Z,993.52
2017-12-15T07:11:03.889Z,993.46
2017-12-15T07:12:04.041Z,993.55
2017-12-15T07:13:04.176Z,993.56
2017-12-15T07:14:04.324Z,993.53
2017-12-15T07:15:04.469Z,993.56
2017-12-15T07:16:28.056Z,993.57
2017-12-15T07:17:28.938Z,993.54
2017-12-15T07:18:28.170Z,993.55
2017-12-15T07:19:28.302Z,993.55
2017-12-15T07:20:28.207Z,993.60
2017-12-15T07:21:28.330Z,993.57
2017-12-15T07:22:28.416Z,993.56
2017-12-15T07:23:28.411Z,993.55
2017-12-15T07:24:28.520Z,993.60
2017-12-15T07:25:28.624Z,993.61
2017-12-15T07:26:28.516Z,993.59
2017-12-15T07:27:28.638Z,993.62
2017-12-15T07:28:28.798Z,993.63
2017-12-15T07:29:28.981Z,993.66
2017-12-15T07:30:29.068Z,993.65
2017-12-15T07:31:29.047Z,993.62
2017-12-15T07:32:28.149Z,993.64
2017-12-15T07:33:28.309Z,993.63
2017-12-15T07:34:28.199Z,993.61
2017-12-15T07:35:28.242Z,993.64
2017-12-15T07:36:28.142Z,993.64
2017-12-15T07:37:28.296Z,993.64
2017-12-15T07:38:53.871Z,993.69
2017-12-15T07:39:54.951Z,993.71
2017-12-15T07:40:54.030Z,993.68
2017-12-15T07:41:54.239Z,993.76
2017-12-15T07:42:54.233Z,993.76
2017-12-15T07:43:54.471Z,993.77
2017-12-15T07:44:54.478Z,993.79
2017-12-15T07:45:54.517Z,993.73
2017-12-15T07:46:54.655Z,993.80
2017-12-15T07:47:54.617Z,993.81
2017-12-15T07:48:54.819Z,993.82
2017-12-15T07:49:54.043Z,993.80
2017-12-15T07:51:17.744Z,993.86
2017-12-15T07:52:17.840Z,993.82
2017-12-15T07:53:17.883Z,993.82
2017-12-15T07:54:17.928Z,993.84
2017-12-15T07:55:17.934Z,993.82
2017-12-15T07:56:18.045Z,993.87
2017-12-15T07:57:18.218Z,993.84
2017-12-15T07:58:18.389Z,993.86
2017-12-15T07:59:18.549Z,993.84
2017-12-15T08:00:18.669Z,993.88
2017-12-15T08:01:17.683Z,993.92
2017-12-15T08:02:41.531Z,993.96
2017-12-15T08:03:41.672Z,993.97
2017-12-15T08:04:41.766Z,993.98
2017-12-15T08:05:41.847Z,993.99
2017-12-15T08:06:41.905Z,994.00
2017-12-15T08:07:42.175Z,994.00
2017-12-15T08:08:45.206Z,993.98
2017-12-15T08:09:42.525Z,994.02
2017-12-15T08:10:41.646Z,994.01
2017-12-15T08:11:41.781Z,994.02
2017-12-15T08:12:41.868Z,994.00
2017-12-15T08:13:42.246Z,994.03
2017-12-15T08:14:42.711Z,994.04
2017-12-15T08:15:41.906Z,994.07
2017-12-15T08:16:41.912Z,994.05
2017-12-15T08:17:42.282Z,994.08
2017-12-15T08:18:42.928Z,994.09
2017-12-15T08:19:42.065Z,994.08
2017-12-15T08:20:42.324Z,994.08
2017-12-15T08:21:42.323Z,994.10
2017-12-15T08:22:41.648Z,994.11
2017-12-15T08:23:41.720Z,994.08
2017-12-15T08:24:42.078Z,994.09
2017-12-15T08:25:42.425Z,994.06
2017-12-15T08:26:43.011Z,994.05
2017-12-15T08:27:42.486Z,994.10
2017-12-15T08:28:42.686Z,994.14
2017-12-15T08:29:42.067Z,994.14
2017-12-15T08:30:42.435Z,994.12
2017-12-15T08:31:42.574Z,994.09
2017-12-15T08:32:42.119Z,994.12
2017-12-15T08:33:42.690Z,994.11
2017-12-15T08:34:42.304Z,994.12
2017-12-15T08:35:42.841Z,994.16
2017-12-15T08:36:42.129Z,994.18
2017-12-15T08:37:42.700Z,994.23
2017-12-15T08:38:42.053Z,994.21
2017-12-15T08:39:42.173Z,994.21
2017-12-15T08:40:42.477Z,994.23
2017-12-15T08:41:42.609Z,994.23
2017-12-15T08:42:42.063Z,994.26
2017-12-15T08:43:42.371Z,994.25
2017-12-15T08:44:42.400Z,994.27
2017-12-15T08:45:42.597Z,994.32
2017-12-15T08:46:41.874Z,994.31
2017-12-15T08:47:42.120Z,994.28
2017-12-15T08:48:42.328Z,994.29
2017-12-15T08:49:42.436Z,994.35
2017-12-15T08:50:42.667Z,994.37
2017-12-15T08:52:05.651Z,994.37
2017-12-15T08:53:05.752Z,994.42
2017-12-15T08:54:05.850Z,994.45
2017-12-15T08:55:06.053Z,994.39
2017-12-15T08:56:06.304Z,994.43
2017-12-15T08:57:06.400Z,994.42
2017-12-15T08:58:06.650Z,994.50
2017-12-15T08:59:06.977Z,994.48
2017-12-15T09:00:06.140Z,994.51
2017-12-15T09:01:06.448Z,994.51
2017-12-15T09:02:06.535Z,994.50
2017-12-15T09:03:05.732Z,994.56
2017-12-15T09:04:05.871Z,994.57
2017-12-15T09:05:06.096Z,994.56
2017-12-15T09:06:06.355Z,994.56
2017-12-15T09:07:06.401Z,994.61
2017-12-15T09:08:06.507Z,994.63
2017-12-15T09:09:06.530Z,994.64
2017-12-15T09:10:05.741Z,994.68
2017-12-15T09:11:05.949Z,994.60
2017-12-15T09:12:30.113Z,994.64
2017-12-15T09:13:30.185Z,994.68
2017-12-15T09:14:30.199Z,994.70
2017-12-15T09:15:30.465Z,994.72
2017-12-15T09:16:30.439Z,994.76
2017-12-15T09:17:30.549Z,994.78
2017-12-15T09:18:30.611Z,994.77
2017-12-15T09:19:30.781Z,994.79
2017-12-15T09:20:30.948Z,994.81
2017-12-15T09:21:30.258Z,994.84
2017-12-15T09:22:30.214Z,994.87
2017-12-15T09:23:30.452Z,994.85
2017-12-15T09:24:30.509Z,994.92
2017-12-15T09:25:30.677Z,994.88
2017-12-15T09:26:30.863Z,994.90
2017-12-15T09:27:54.784Z,994.83
2017-12-15T09:28:55.057Z,994.88
2017-12-15T09:29:55.221Z,994.86
2017-12-15T09:30:55.190Z,994.86
2017-12-15T09:31:55.463Z,994.93
2017-12-15T09:32:57.140Z,994.88
2017-12-15T09:34:19.675Z,994.85
2017-12-15T09:35:20.416Z,994.85
2017-12-15T09:36:19.821Z,994.85
2017-12-15T09:37:20.033Z,994.89
2017-12-15T09:38:31.458Z,994.90
2017-12-15T09:39:32.242Z,994.92
2017-12-15T09:40:31.520Z,994.85
2017-12-15T09:41:31.649Z,994.84
2017-12-15T09:42:32.869Z,994.87
2017-12-15T09:43:32.036Z,994.88
2017-12-15T09:44:32.307Z,994.89
2017-12-15T09:45:31.597Z,994.88
2017-12-15T09:46:31.752Z,994.89
2017-12-15T09:47:31.884Z,994.95
2017-12-15T09:48:32.083Z,994.99
2017-12-15T09:49:32.179Z,994.97
2017-12-15T09:50:32.244Z,995.04
2017-12-15T09:51:32.485Z,995.03
2017-12-15T09:52:31.775Z,995.03
2017-12-15T09:53:31.980Z,995.04
2017-12-15T09:54:32.042Z,995.04
2017-12-15T09:55:32.248Z,995.04
2017-12-15T09:56:32.268Z,994.97
2017-12-15T09:57:33.024Z,994.99
2017-12-15T09:58:32.077Z,995.03
2017-12-15T09:59:32.119Z,995.05
2017-12-15T10:00:32.120Z,995.03
2017-12-15T10:01:32.293Z,995.04
2017-12-15T10:02:31.555Z,995.06
2017-12-15T10:03:31.725Z,995.05
2017-12-15T10:04:31.935Z,995.09
2017-12-15T10:05:32.326Z,995.13
2017-12-15T10:06:33.683Z,995.17
2017-12-15T10:07:31.866Z,995.15
2017-12-15T10:08:31.906Z,995.15
2017-12-15T10:09:32.760Z,995.16
2017-12-15T10:10:32.109Z,995.17
2017-12-15T10:11:32.420Z,995.19
2017-12-15T10:12:31.579Z,995.26
2017-12-15T10:13:31.730Z,995.21
2017-12-15T10:14:31.769Z,995.25
2017-12-15T10:15:31.968Z,995.21
2017-12-15T10:16:32.062Z,995.22
2017-12-15T10:17:32.306Z,995.25
2017-12-15T10:18:32.313Z,995.24
2017-12-15T10:19:31.664Z,995.23
2017-12-15T10:20:31.876Z,995.19
2017-12-15T10:21:32.062Z,995.24
2017-12-15T10:22:32.296Z,995.23
2017-12-15T10:23:31.562Z,995.25
2017-12-15T10:24:32.892Z,995.27
2017-12-15T10:25:32.248Z,995.24
2017-12-15T10:26:32.255Z,995.25
2017-12-15T10:27:32.400Z,995.27
2017-12-15T10:28:31.626Z,995.29
2017-12-15T10:29:31.685Z,995.31
2017-12-15T10:30:31.922Z,995.28
2017-12-15T10:31:32.267Z,995.24
2017-12-15T10:32:32.659Z,995.27
2017-12-15T10:33:32.161Z,995.31
2017-12-15T10:34:32.302Z,995.28
2017-12-15T10:35:32.447Z,995.28
2017-12-15T10:36:31.811Z,995.25
2017-12-15T10:37:55.716Z,995.29
2017-12-15T10:38:55.794Z,995.26
2017-12-15T10:39:56.236Z,995.25
2017-12-15T10:40:56.396Z,995.32
2017-12-15T10:41:56.707Z,995.32
2017-12-15T10:42:56.049Z,995.29
2017-12-15T10:43:56.261Z,995.28
2017-12-15T10:44:56.483Z,995.26
2017-12-15T10:45:56.186Z,995.27
2017-12-15T10:46:56.398Z,995.28
2017-12-15T10:47:56.568Z,995.31
2017-12-15T10:48:55.801Z,995.36
2017-12-15T10:49:55.901Z,995.34
2017-12-15T10:51:20.023Z,995.36
2017-12-15T10:52:43.980Z,995.39
2017-12-15T10:53:44.077Z,995.35
2017-12-15T10:54:44.215Z,995.36
2017-12-15T10:55:44.395Z,995.43
2017-12-15T10:56:44.734Z,995.44
2017-12-15T10:57:44.845Z,995.45
2017-12-15T10:58:44.022Z,995.44
2017-12-15T10:59:44.244Z,995.43
2017-12-15T11:00:44.532Z,995.45
2017-12-15T11:01:44.726Z,995.49
2017-12-15T11:02:44.803Z,995.47
2017-12-15T11:03:44.013Z,995.45
2017-12-15T11:04:44.212Z,995.50
2017-12-15T11:05:44.245Z,995.52
2017-12-15T11:06:44.534Z,995.50
2017-12-15T11:07:44.797Z,995.45
2017-12-15T11:08:44.074Z,995.50
2017-12-15T11:09:44.152Z,995.48
2017-12-15T11:10:44.368Z,995.52
2017-12-15T11:11:44.912Z,995.52
2017-12-15T11:13:08.071Z,995.47
2017-12-15T11:14:08.075Z,995.54
2017-12-15T11:15:08.169Z,995.55
2017-12-15T11:16:32.506Z,995.55
2017-12-15T11:17:33.042Z,995.56
2017-12-15T11:18:33.259Z,995.58
2017-12-15T11:19:32.508Z,995.59
2017-12-15T11:20:33.204Z,995.61
2017-12-15T11:21:32.493Z,995.58
2017-12-15T11:22:33.166Z,995.56
2017-12-15T11:23:33.951Z,995.56
2017-12-15T11:24:33.318Z,995.57
2017-12-15T11:25:32.708Z,995.55
2017-12-15T11:26:33.076Z,995.62
2017-12-15T11:27:34.441Z,995.66
2017-12-15T11:28:32.787Z,995.59
2017-12-15T11:29:32.941Z,995.63
2017-12-15T11:30:33.159Z,995.60
2017-12-15T11:31:32.508Z,995.61
2017-12-15T11:32:32.796Z,995.59
2017-12-15T11:33:32.899Z,995.61
2017-12-15T11:34:33.191Z,995.57
2017-12-15T11:35:33.225Z,995.57
2017-12-15T11:36:32.501Z,995.58
2017-12-15T11:37:32.668Z,995.61
2017-12-15T11:38:32.996Z,995.60
2017-12-15T11:39:33.271Z,995.59
2017-12-15T11:40:33.416Z,995.56
2017-12-15T11:41:32.972Z,995.62
2017-12-15T11:42:33.047Z,995.62
2017-12-15T11:43:33.230Z,995.62
2017-12-15T11:44:32.392Z,995.62
2017-12-15T11:45:32.524Z,995.65
2017-12-15T11:46:33.837Z,995.70
2017-12-15T11:47:32.999Z,995.69
2017-12-15T11:48:33.262Z,995.67
2017-12-15T11:49:32.501Z,995.68
2017-12-15T11:50:32.710Z,995.70
2017-12-15T11:51:32.706Z,995.71
2017-12-15T11:52:32.929Z,995.67
2017-12-15T11:53:33.128Z,995.66
2017-12-15T11:54:33.286Z,995.66
2017-12-15T11:55:32.397Z,995.71
2017-12-15T11:56:32.692Z,995.69
2017-12-15T11:57:32.834Z,995.66
2017-12-15T11:58:33.186Z,995.73
2017-12-15T11:59:34.691Z,995.73
2017-12-15T12:00:33.364Z,995.74
2017-12-15T12:01:32.632Z,995.75
2017-12-15T12:02:33.203Z,995.75
2017-12-15T12:03:32.438Z,995.74
2017-12-15T12:04:33.124Z,995.77
2017-12-15T12:05:34.459Z,995.79
2017-12-15T12:06:32.511Z,995.79
2017-12-15T12:07:32.732Z,995.79
2017-12-15T12:08:32.814Z,995.79
2017-12-15T12:09:32.980Z,995.81
2017-12-15T12:10:33.902Z,995.81
2017-12-15T12:11:33.206Z,995.82
2017-12-15T12:12:32.394Z,995.81
2017-12-15T12:13:32.707Z,995.82
2017-12-15T12:14:56.824Z,995.78
2017-12-15T12:15:56.937Z,995.83
2017-12-15T12:16:57.174Z,995.78
2017-12-15T12:17:57.438Z,995.87
2017-12-15T12:18:57.902Z,995.89
2017-12-15T12:19:57.118Z,995.87
2017-12-15T12:20:57.400Z,995.88
2017-12-15T12:21:57.702Z,995.86
2017-12-15T12:22:56.894Z,995.85
2017-12-15T12:23:56.990Z,995.90
2017-12-15T12:24:57.129Z,995.89
2017-12-15T12:25:57.376Z,995.87
2017-12-15T12:26:57.655Z,995.87
2017-12-15T12:27:56.943Z,995.88
2017-12-15T12:28:57.170Z,995.86
2017-12-15T12:29:58.508Z,995.86
2017-12-15T12:30:57.649Z,995.86
2017-12-15T12:31:57.847Z,995.89
2017-12-15T12:32:56.901Z,995.92
2017-12-15T12:33:57.030Z,995.96
2017-12-15T12:34:57.149Z,995.97
2017-12-15T12:35:57.281Z,995.98
2017-12-15T12:37:21.602Z,996.01
2017-12-15T12:38:22.086Z,995.99
2017-12-15T12:39:22.077Z,995.98
2017-12-15T12:40:45.963Z,996.02
2017-12-15T12:41:46.089Z,996.01
2017-12-15T12:42:46.288Z,996.04
2017-12-15T12:43:46.567Z,996.03